Time;durP1;ratioP1;P1;durP2;ratioP2;P2;SDS_P1;SDS_P2;PMS_P1;PMS_P2;Temp;Humidity;BMP_temperature;BMP_pressure;BME280_temperature;BME280_humidity;BME280_pressure;Samples;Min_cycle;Max_cycle;Signal;HPM_P1;HPM_P2
2022/07/20 00:01:44;;;;;;;4.18;3.88;;;25.30;46.10;;;;;;5013513;28;20251;-73
2022/07/20 00:04:11;;;;;;;4.50;4.10;;;25.30;46.20;;;;;;5012174;28;20584;-73
2022/07/20 00:06:38;;;;;;;4.10;3.70;;;25.30;46.20;;;;;;5012165;28;20211;-73
2022/07/20 00:11:53;;;;;;;4.38;3.97;;;25.30;46.20;;;;;;5012297;28;20201;-73
2022/07/20 00:14:21;;;;;;;4.38;3.97;;;25.30;46.30;;;;;;5011970;28;20212;-73
2022/07/20 00:16:48;;;;;;;4.80;3.88;;;25.20;46.20;;;;;;5012018;28;20203;-73
2022/07/20 00:19:15;;;;;;;4.65;4.25;;;25.20;46.30;;;;;;5012146;28;20208;-73
2022/07/20 00:21:43;;;;;;;4.70;4.18;;;25.20;46.20;;;;;;5012126;28;20221;-73
2022/07/20 00:24:10;;;;;;;4.25;3.78;;;25.20;46.30;;;;;;5015175;28;20213;-75
2022/07/20 00:26:37;;;;;;;4.60;3.95;;;25.10;46.30;;;;;;5017745;28;20767;-74
2022/07/20 00:29:06;;;;;;;4.53;4.13;;;25.10;46.40;;;;;;5016262;28;20220;-74
2022/07/20 00:31:33;;;;;;;4.53;4.13;;;25.10;46.40;;;;;;5016158;28;20652;-74
2022/07/20 00:33:59;;;;;;;4.65;4.18;;;25.10;46.40;;;;;;5017085;28;20213;-74
2022/07/20 00:36:26;;;;;;;5.05;3.95;;;25.10;46.50;;;;;;5016046;28;20235;-73
2022/07/20 00:38:53;;;;;;;4.47;4.07;;;25.10;46.50;;;;;;5015959;28;20573;-74
2022/07/20 00:41:20;;;;;;;4.70;4.30;;;25.10;46.50;;;;;;5015816;28;20200;-73
2022/07/20 00:43:57;;;;;;;5.93;4.15;;;25.10;46.50;;;;;;5015883;28;20220;-73
2022/07/20 00:46:26;;;;;;;6.57;4.13;;;25.00;46.40;;;;;;5016135;28;20670;-74
2022/07/20 00:48:53;;;;;;;4.30;3.90;;;25.00;46.60;;;;;;5015759;28;20216;-73
2022/07/20 00:51:20;;;;;;;4.47;4.07;;;25.00;46.50;;;;;;5015821;28;20236;-74
2022/07/20 00:53:47;;;;;;;4.65;4.25;;;25.00;46.60;;;;;;5016138;28;20217;-73
2022/07/20 00:56:14;;;;;;;4.65;4.25;;;25.00;46.70;;;;;;5016084;28;20208;-73
2022/07/20 00:58:41;;;;;;;5.78;4.22;;;24.90;46.60;;;;;;5015774;28;20658;-72
2022/07/20 01:01:08;;;;;;;4.47;4.07;;;25.00;46.70;;;;;;5015869;28;20228;-73
2022/07/20 01:03:36;;;;;;;4.47;4.07;;;24.90;46.70;;;;;;5015804;28;20227;-73
2022/07/20 01:06:04;;;;;;;4.95;3.97;;;24.90;46.70;;;;;;5015715;28;20628;-73
2022/07/20 01:08:31;;;;;;;4.80;4.40;;;24.90;46.80;;;;;;5015470;28;20216;-74
2022/07/20 01:10:58;;;;;;;4.15;3.75;;;24.90;47.30;;;;;;5015301;28;20351;-73
2022/07/20 01:13:25;;;;;;;4.80;4.30;;;24.90;46.80;;;;;;5015294;28;20205;-74
2022/07/20 01:15:53;;;;;;;4.50;4.10;;;24.90;46.70;;;;;;5015663;28;20201;-74
2022/07/20 01:18:20;;;;;;;4.30;3.90;;;24.90;46.80;;;;;;5015338;28;20674;-73
2022/07/20 01:20:50;;;;;;;4.25;3.85;;;24.90;46.90;;;;;;5015251;28;20200;-73
2022/07/20 01:23:19;;;;;;;4.30;3.90;;;24.90;46.90;;;;;;5016597;28;20174;-74
2022/07/20 01:25:46;;;;;;;4.68;4.00;;;24.90;46.90;;;;;;5015340;28;20252;-74
2022/07/20 01:28:14;;;;;;;4.60;4.20;;;24.80;46.80;;;;;;5015175;28;20274;-73
2022/07/20 01:30:41;;;;;;;4.60;4.20;;;24.80;46.90;;;;;;5015229;28;20228;-73
2022/07/20 01:33:09;;;;;;;4.57;4.18;;;24.80;47.00;;;;;;5016440;28;20632;-73
2022/07/20 01:35:36;;;;;;;5.18;4.20;;;24.80;47.00;;;;;;5016251;28;20271;-73
2022/07/20 01:38:03;;;;;;;5.38;4.50;;;24.80;47.00;;;;;;5015861;28;20659;-73
2022/07/20 01:40:31;;;;;;;4.78;4.22;;;24.70;47.00;;;;;;5015038;28;20192;-73
2022/07/20 01:42:59;;;;;;;5.40;4.15;;;24.70;47.00;;;;;;5015222;28;20201;-73
2022/07/20 01:45:26;;;;;;;4.35;3.95;;;24.70;47.10;;;;;;5015239;28;20224;-73
2022/07/20 01:47:53;;;;;;;4.40;3.63;;;24.70;47.00;;;;;;5015915;28;20320;-73
2022/07/20 01:50:20;;;;;;;4.65;4.25;;;24.70;47.00;;;;;;5015634;28;20232;-73
2022/07/20 01:52:49;;;;;;;4.30;3.90;;;24.70;47.20;;;;;;5016373;28;20239;-73
2022/07/20 01:55:16;;;;;;;4.65;4.15;;;24.70;47.00;;;;;;5014932;28;20223;-73
2022/07/20 01:57:45;;;;;;;4.07;3.50;;;24.70;47.30;;;;;;5014878;28;20292;-73
2022/07/20 02:00:13;;;;;;;4.40;4.00;;;24.70;47.30;;;;;;5015071;28;20196;-73
2022/07/20 02:02:40;;;;;;;4.38;3.97;;;24.70;47.30;;;;;;5014771;28;20201;-73
2022/07/20 02:05:09;;;;;;;4.53;4.13;;;24.70;47.10;;;;;;5014779;28;20295;-73
2022/07/20 02:07:36;;;;;;;4.45;3.97;;;24.60;47.00;;;;;;5014544;28;20224;-73
2022/07/20 02:10:03;;;;;;;4.43;4.03;;;24.60;47.10;;;;;;5014454;28;20201;-73
2022/07/20 02:12:31;;;;;;;4.20;3.80;;;24.60;47.10;;;;;;5014264;28;20199;-73
2022/07/20 02:14:59;;;;;;;4.47;4.13;;;24.60;47.20;;;;;;5014399;28;20223;-74
2022/07/20 02:17:26;;;;;;;4.20;3.83;;;24.60;47.20;;;;;;5014985;28;20207;-73
2022/07/20 02:19:53;;;;;;;3.90;3.60;;;24.50;47.20;;;;;;5014025;28;20666;-73
2022/07/20 02:22:20;;;;;;;4.50;4.10;;;24.60;47.30;;;;;;5014344;28;20200;-73
2022/07/20 02:24:47;;;;;;;4.60;4.20;;;24.50;47.20;;;;;;5013884;28;20216;-73
2022/07/20 02:27:14;;;;;;;4.57;4.07;;;24.50;47.20;;;;;;5015159;28;20200;-73
2022/07/20 02:29:42;;;;;;;4.13;3.72;;;24.50;47.20;;;;;;5013706;28;20241;-73
2022/07/20 02:32:10;;;;;;;3.83;3.53;;;24.50;47.20;;;;;;5013707;28;20208;-73
2022/07/20 02:34:37;;;;;;;5.10;3.90;;;24.50;47.20;;;;;;5014870;28;20215;-73
2022/07/20 02:37:04;;;;;;;4.43;4.03;;;24.50;47.40;;;;;;5013581;28;20291;-73
2022/07/20 02:39:31;;;;;;;4.00;3.70;;;24.50;47.30;;;;;;5013931;28;20199;-73
2022/07/20 02:41:59;;;;;;;4.45;4.05;;;24.50;47.30;;;;;;5013715;28;20250;-73
2022/07/20 02:44:26;;;;;;;4.57;4.15;;;24.40;47.30;;;;;;5014967;28;20251;-73
2022/07/20 02:46:54;;;;;;;6.53;3.90;;;24.40;47.30;;;;;;5012922;28;20228;-73
2022/07/20 02:49:22;;;;;;;4.20;3.88;;;24.50;47.50;;;;;;5013393;28;20737;-74
2022/07/20 02:51:49;;;;;;;4.82;3.67;;;24.40;47.40;;;;;;5013494;28;20207;-73
2022/07/20 02:54:17;;;;;;;4.45;3.78;;;24.40;47.50;;;;;;5068447;22;20199;-72
2022/07/20 02:56:44;;;;;;;4.63;3.92;;;24.40;47.50;;;;;;4996639;28;20284;-73
2022/07/20 02:59:10;;;;;;;4.32;3.80;;;24.40;47.50;;;;;;4996955;28;20692;-73
2022/07/20 03:01:37;;;;;;;4.30;3.90;;;24.30;47.40;;;;;;5014365;28;20242;-72
2022/07/20 03:04:05;;;;;;;4.10;3.80;;;24.30;47.40;;;;;;4997086;28;20224;-73
2022/07/20 03:06:33;;;;;;;4.22;3.83;;;24.40;47.50;;;;;;5013178;28;20566;-72
2022/07/20 03:09:00;;;;;;;4.55;3.75;;;24.40;47.40;;;;;;4996769;28;20598;-72
2022/07/20 03:11:27;;;;;;;3.92;3.53;;;24.30;47.40;;;;;;5014368;28;20184;-72
2022/07/20 03:13:54;;;;;;;4.43;3.95;;;24.30;47.50;;;;;;5014123;28;20223;-73
2022/07/20 03:16:21;;;;;;;5.05;3.70;;;24.30;47.70;;;;;;5013004;28;20199;-72
2022/07/20 03:18:48;;;;;;;4.03;3.72;;;24.30;47.70;;;;;;5014523;28;20191;-72
2022/07/20 03:21:15;;;;;;;4.15;3.70;;;24.30;47.70;;;;;;5012860;28;20232;-72
2022/07/20 03:23:44;;;;;;;5.53;3.80;;;24.30;47.70;;;;;;4996432;28;20220;-73
2022/07/20 03:26:11;;;;;;;3.65;3.30;;;24.30;47.80;;;;;;4996466;28;20247;-72
2022/07/20 03:28:38;;;;;;;3.90;3.58;;;24.30;47.70;;;;;;4996805;28;20259;-72
2022/07/20 03:31:05;;;;;;;4.53;3.90;;;24.40;47.70;;;;;;4996383;28;20208;-72
2022/07/20 03:33:33;;;;;;;4.30;3.72;;;24.50;47.50;;;;;;5012701;28;20216;-72
2022/07/20 03:36:00;;;;;;;3.83;3.53;;;24.50;47.40;;;;;;5012795;28;20222;-72
2022/07/20 03:38:27;;;;;;;4.03;3.63;;;24.60;47.40;;;;;;5012766;28;20188;-72
2022/07/20 03:40:56;;;;;;;3.88;3.58;;;24.60;47.30;;;;;;5014284;28;20215;-73
2022/07/20 03:43:25;;;;;;;3.92;3.55;;;24.60;47.20;;;;;;4996975;28;20207;-73
2022/07/20 03:45:52;;;;;;;4.50;4.10;;;24.60;47.20;;;;;;4997057;28;20247;-72
2022/07/20 03:48:19;;;;;;;5.10;3.92;;;24.60;47.20;;;;;;4996965;28;20217;-72
2022/07/20 03:50:46;;;;;;;4.47;4.07;;;24.60;47.20;;;;;;5012617;28;20197;-72
2022/07/20 03:53:13;;;;;;;4.20;3.80;;;24.60;47.20;;;;;;4996059;28;20223;-73
2022/07/20 03:55:40;;;;;;;3.85;3.50;;;24.60;47.20;;;;;;4996201;28;20224;-72
2022/07/20 03:58:09;;;;;;;4.22;3.63;;;24.60;47.20;;;;;;5012870;28;20225;-72
2022/07/20 04:00:36;;;;;;;4.05;3.72;;;24.50;47.10;;;;;;4995925;28;20193;-72
2022/07/20 04:03:03;;;;;;;4.78;4.25;;;24.50;47.30;;;;;;4996121;28;20197;-72
2022/07/20 04:05:30;;;;;;;4.18;3.70;;;24.50;47.30;;;;;;4995902;28;20219;-72
2022/07/20 04:07:57;;;;;;;5.15;3.63;;;24.50;47.30;;;;;;4995601;28;20674;-72
2022/07/20 04:10:25;;;;;;;4.07;3.65;;;24.50;47.40;;;;;;5013360;28;20239;-72
2022/07/20 04:12:52;;;;;;;3.90;3.60;;;24.40;47.40;;;;;;4995669;28;20204;-72
2022/07/20 04:15:21;;;;;;;3.80;3.50;;;24.40;47.50;;;;;;5013229;28;20307;-72
2022/07/20 04:17:48;;;;;;;6.90;4.18;;;24.40;47.50;;;;;;5013504;28;20193;-72
2022/07/20 04:20:15;;;;;;;4.38;3.97;;;24.40;47.70;;;;;;5012073;28;20185;-72
2022/07/20 04:22:42;;;;;;;4.15;3.75;;;24.40;47.70;;;;;;4995690;28;20283;-72
2022/07/20 04:25:09;;;;;;;4.55;3.53;;;24.30;47.70;;;;;;4995830;28;20248;-72
2022/07/20 04:27:36;;;;;;;4.05;3.65;;;24.30;47.70;;;;;;4995587;28;20200;-72
2022/07/20 04:30:04;;;;;;;4.80;3.55;;;24.40;47.70;;;;;;5013585;28;20205;-72
2022/07/20 04:32:32;;;;;;;4.53;4.13;;;24.40;47.80;;;;;;5012400;28;20598;-72
2022/07/20 04:35:00;;;;;;;4.40;3.63;;;24.40;47.80;;;;;;4995600;28;20271;-73
2022/07/20 04:37:27;;;;;;;4.40;4.00;;;24.40;47.70;;;;;;4995683;28;20341;-72
2022/07/20 04:39:53;;;;;;;3.80;3.50;;;24.30;47.60;;;;;;5013181;28;20192;-72
2022/07/20 04:42:20;;;;;;;4.03;3.63;;;24.40;47.80;;;;;;4995523;28;20196;-71
2022/07/20 04:44:47;;;;;;;4.13;3.60;;;24.40;47.70;;;;;;4995416;28;20647;-72
2022/07/20 04:47:15;;;;;;;4.88;3.85;;;24.40;47.70;;;;;;4995571;28;20255;-72
2022/07/20 04:49:43;;;;;;;5.72;3.95;;;24.40;47.80;;;;;;5011961;28;20311;-73
2022/07/20 04:52:10;;;;;;;4.97;4.18;;;24.40;47.80;;;;;;5012129;28;20267;-73
2022/07/20 04:54:37;;;;;;;5.28;3.90;;;24.50;47.90;;;;;;4995055;28;20216;-73
2022/07/20 04:57:05;;;;;;;4.88;3.50;;;24.70;47.80;;;;;;5013294;28;20181;-73
2022/07/20 04:59:32;;;;;;;5.82;3.60;;;24.90;47.50;;;;;;4995389;28;20577;-73
2022/07/20 05:02:02;;;;;;;4.55;3.70;;;25.00;47.20;;;;;;4995298;28;20263;-73
2022/07/20 05:04:29;;;;;;;4.53;3.53;;;25.20;46.80;;;;;;4995203;28;20244;-73
2022/07/20 05:06:57;;;;;;;4.63;3.90;;;25.40;47.10;;;;;;5013086;28;20662;-73
2022/07/20 05:09:25;;;;;;;4.45;4.05;;;25.60;46.10;;;;;;4995343;28;20213;-73
2022/07/20 05:11:52;;;;;;;3.88;3.50;;;25.70;45.70;;;;;;4999012;28;20200;-73
2022/07/20 05:14:19;;;;;;;5.65;3.85;;;25.90;45.50;;;;;;4999242;28;20757;-73
2022/07/20 05:16:46;;;;;;;5.70;4.13;;;26.00;45.20;;;;;;5015065;28;20216;-74
2022/07/20 05:19:13;;;;;;;4.43;4.00;;;26.10;45.00;;;;;;5016432;28;20192;-74
2022/07/20 05:21:40;;;;;;;3.95;3.65;;;26.20;44.70;;;;;;5015243;28;20292;-74
2022/07/20 05:24:09;;;;;;;6.25;3.78;;;26.30;44.50;;;;;;5015470;28;20236;-74
2022/07/20 05:26:36;;;;;;;5.38;3.83;;;26.40;44.20;;;;;;4998726;28;20299;-74
2022/07/20 05:29:03;;;;;;;3.90;3.60;;;26.60;44.10;;;;;;5014959;28;20227;-74
2022/07/20 05:31:30;;;;;;;4.70;4.05;;;26.70;43.90;;;;;;5014984;28;20666;-73
2022/07/20 05:33:58;;;;;;;4.40;3.65;;;26.70;43.70;;;;;;4998958;28;20213;-73
2022/07/20 05:36:26;;;;;;;5.50;3.95;;;26.80;43.60;;;;;;4998713;28;20242;-73
2022/07/20 05:38:54;;;;;;;4.18;3.78;;;26.80;43.50;;;;;;5016414;28;20216;-73
2022/07/20 05:41:22;;;;;;;4.10;3.80;;;26.80;43.60;;;;;;4998503;28;20554;-73
2022/07/20 05:43:49;;;;;;;4.25;3.60;;;26.70;43.60;;;;;;5015905;28;20215;-73
2022/07/20 05:46:16;;;;;;;5.45;3.72;;;26.70;43.70;;;;;;5016045;28;20203;-73
2022/07/20 05:48:43;;;;;;;4.05;3.67;;;26.70;44.20;;;;;;5014607;28;20740;-73
2022/07/20 05:51:10;;;;;;;6.07;3.88;;;26.80;43.50;;;;;;4998423;28;20277;-73
2022/07/20 05:53:37;;;;;;;4.10;3.80;;;26.90;43.50;;;;;;5015865;28;20216;-73
2022/07/20 05:56:05;;;;;;;4.20;3.80;;;27.00;43.40;;;;;;4998586;28;20650;-74
2022/07/20 05:58:33;;;;;;;4.22;3.83;;;27.10;43.30;;;;;;5015747;28;20743;-73
2022/07/20 06:01:01;;;;;;;5.13;4.18;;;27.20;43.10;;;;;;4998347;28;20201;-74
2022/07/20 06:03:28;;;;;;;4.63;4.10;;;27.20;42.90;;;;;;5014695;28;20201;-74
2022/07/20 06:05:55;;;;;;;4.35;3.95;;;27.30;42.70;;;;;;4998397;28;20203;-74
2022/07/20 06:08:22;;;;;;;4.63;3.90;;;27.50;42.60;;;;;;5015899;28;20189;-74
2022/07/20 06:10:49;;;;;;;4.40;3.92;;;27.60;42.40;;;;;;4998138;28;20217;-74
2022/07/20 06:13:16;;;;;;;4.15;3.75;;;27.70;42.30;;;;;;4998442;28;20204;-74
2022/07/20 06:15:45;;;;;;;4.28;3.90;;;27.80;42.20;;;;;;5015028;28;20283;-73
2022/07/20 06:18:12;;;;;;;6.00;4.00;;;27.90;42.10;;;;;;5015760;28;20196;-73
2022/07/20 06:20:39;;;;;;;4.15;3.75;;;27.90;41.90;;;;;;4998414;28;20548;-73
2022/07/20 06:23:06;;;;;;;4.00;3.60;;;28.00;41.80;;;;;;5013796;28;20216;-73
2022/07/20 06:25:33;;;;;;;4.97;3.88;;;28.10;41.70;;;;;;5014432;28;20224;-73
2022/07/20 06:28:00;;;;;;;5.25;4.05;;;28.10;41.50;;;;;;4998399;28;20291;-74
2022/07/20 06:30:28;;;;;;;4.22;3.80;;;28.20;41.30;;;;;;4997926;28;20764;-74
2022/07/20 06:32:56;;;;;;;5.13;3.60;;;28.30;41.20;;;;;;4998322;28;20196;-72
2022/07/20 06:35:23;;;;;;;4.65;3.78;;;28.30;41.10;;;;;;4997959;28;20216;-73
2022/07/20 06:37:51;;;;;;;4.10;3.70;;;28.40;40.90;;;;;;5015506;28;20193;-73
2022/07/20 06:40:17;;;;;;;4.90;4.13;;;28.40;40.80;;;;;;4997541;28;20200;-73
2022/07/20 06:42:45;;;;;;;4.30;3.90;;;28.50;40.70;;;;;;5015073;28;20752;-72
2022/07/20 06:45:11;;;;;;;4.78;3.75;;;28.50;40.50;;;;;;4997688;28;20236;-73
2022/07/20 06:47:38;;;;;;;4.13;3.83;;;28.60;40.50;;;;;;4997473;28;20279;-73
2022/07/20 06:50:08;;;;;;;4.32;3.92;;;28.70;40.30;;;;;;4997234;28;20220;-73
2022/07/20 06:52:35;;;;;;;4.22;3.80;;;28.80;40.20;;;;;;5013569;28;20189;-73
2022/07/20 06:55:02;;;;;;;5.18;3.90;;;28.80;40.10;;;;;;5013327;28;20266;-72
2022/07/20 06:57:30;;;;;;;5.03;4.00;;;28.90;40.00;;;;;;5013739;28;20211;-73
2022/07/20 06:59:57;;;;;;;4.15;3.78;;;28.90;39.80;;;;;;4997441;28;20192;-73
2022/07/20 07:02:24;;;;;;;4.60;4.03;;;29.00;39.70;;;;;;5013316;28;20196;-73
2022/07/20 07:04:51;;;;;;;4.60;4.20;;;29.10;39.60;;;;;;5013264;28;20226;-73
2022/07/20 07:07:19;;;;;;;3.90;3.50;;;29.10;39.40;;;;;;4997305;28;20196;-73
2022/07/20 07:09:46;;;;;;;4.47;3.90;;;29.20;39.30;;;;;;5014704;28;20219;-72
2022/07/20 07:12:13;;;;;;;4.07;3.70;;;29.20;39.10;;;;;;5015225;28;20665;-73
2022/07/20 07:14:40;;;;;;;3.90;3.60;;;29.30;39.00;;;;;;4997242;28;20699;-73
2022/07/20 07:17:07;;;;;;;3.90;3.60;;;29.40;39.00;;;;;;5014500;28;20196;-73
2022/07/20 07:19:34;;;;;;;3.80;3.50;;;29.40;39.00;;;;;;4996990;28;20263;-73
2022/07/20 07:22:02;;;;;;;4.18;3.78;;;29.50;38.90;;;;;;4996833;28;20240;-73
2022/07/20 07:24:30;;;;;;;4.93;3.53;;;29.50;38.70;;;;;;5012940;28;20227;-74
2022/07/20 07:26:57;;;;;;;4.18;3.78;;;29.60;38.70;;;;;;5014316;28;20665;-72
2022/07/20 07:29:24;;;;;;;5.20;3.95;;;29.60;38.60;;;;;;4996245;28;20224;-73
2022/07/20 07:31:51;;;;;;;4.80;4.30;;;29.70;38.50;;;;;;5013951;28;20224;-73
2022/07/20 07:34:18;;;;;;;5.03;3.88;;;29.70;38.30;;;;;;5013852;28;20212;-73
2022/07/20 07:36:46;;;;;;;4.32;3.90;;;29.80;38.20;;;;;;4996260;28;20207;-73
2022/07/20 07:39:13;;;;;;;3.80;3.50;;;29.80;38.20;;;;;;5012878;28;20206;-73
2022/07/20 07:41:41;;;;;;;5.85;4.03;;;29.90;38.20;;;;;;5012582;28;20234;-73
2022/07/20 07:44:09;;;;;;;4.18;3.83;;;29.90;38.10;;;;;;4996251;28;20223;-73
2022/07/20 07:49:23;;;;;;;4.70;4.25;;;29.90;38.00;;;;;;5086320;23;20227;-73
2022/07/20 07:51:50;;;;;;;5.15;4.65;;;30.00;37.90;;;;;;4996191;28;20222;-74
2022/07/20 07:54:17;;;;;;;7.90;5.50;;;29.90;38.60;;;;;;5013885;28;20243;-74
2022/07/20 07:56:46;;;;;;;6.80;4.90;;;30.00;38.80;;;;;;4995906;28;20250;-74
2022/07/20 07:59:13;;;;;;;10.45;5.55;;;30.10;38.80;;;;;;4995995;28;20641;-74
2022/07/20 08:01:40;;;;;;;8.18;5.53;;;30.10;39.10;;;;;;5012299;28;20658;-73
2022/07/20 08:04:07;;;;;;;7.25;5.90;;;30.20;39.10;;;;;;5013483;28;20240;-74
2022/07/20 08:06:36;;;;;;;9.85;5.43;;;30.20;39.10;;;;;;4996098;28;20303;-73
2022/07/20 08:09:04;;;;;;;9.63;5.68;;;30.20;39.30;;;;;;4996056;28;20526;-73
2022/07/20 08:11:31;;;;;;;7.30;5.70;;;30.30;39.10;;;;;;5012264;28;20211;-74
2022/07/20 08:14:02;;;;;;;8.75;6.07;;;30.20;39.80;;;;;;5012278;28;20302;-74
2022/07/20 08:16:30;;;;;;;7.90;6.18;;;30.20;39.60;;;;;;4996651;28;20199;-74
2022/07/20 08:18:57;;;;;;;8.95;6.40;;;30.30;39.40;;;;;;4996354;28;20196;-73
2022/07/20 08:21:25;;;;;;;9.27;6.68;;;30.20;40.00;;;;;;5089667;23;20286;-71
2022/07/20 08:23:51;;;;;;;10.05;6.47;;;30.20;40.10;;;;;;5013237;28;20211;-72
2022/07/20 08:26:19;;;;;;;9.27;6.72;;;30.30;39.40;;;;;;4996055;28;20196;-73
2022/07/20 08:28:46;;;;;;;12.07;6.70;;;30.40;39.20;;;;;;4996011;28;20192;-74
2022/07/20 08:31:14;;;;;;;7.88;6.22;;;30.40;39.10;;;;;;4996349;28;20215;-74
2022/07/20 08:33:41;;;;;;;10.55;6.60;;;30.50;39.00;;;;;;4997374;28;20216;-74
2022/07/20 08:36:08;;;;;;;7.78;6.25;;;30.50;39.00;;;;;;4996135;28;20220;-74
2022/07/20 08:38:36;;;;;;;10.95;6.43;;;30.50;38.80;;;;;;5012379;28;20223;-73
2022/07/20 08:41:03;;;;;;;8.98;5.97;;;30.70;38.90;;;;;;4996786;28;20196;-73
2022/07/20 08:43:30;;;;;;;8.98;6.20;;;30.70;38.80;;;;;;5012317;28;20196;-74
2022/07/20 08:45:57;;;;;;;10.38;6.47;;;30.70;38.80;;;;;;4999027;28;20196;-74
2022/07/20 08:48:26;;;;;;;8.35;6.20;;;30.80;38.70;;;;;;5134323;23;20676;-73
2022/07/20 08:50:54;;;;;;;11.27;6.47;;;30.90;38.70;;;;;;5017814;28;20192;-73
2022/07/20 08:53:21;;;;;;;7.47;6.25;;;30.80;38.60;;;;;;5000125;28;20619;-74
2022/07/20 08:55:48;;;;;;;9.27;6.30;;;30.90;38.80;;;;;;5001192;28;20200;-73
2022/07/20 08:58:15;;;;;;;8.57;6.03;;;31.00;38.70;;;;;;5017933;28;20507;-73
2022/07/20 09:00:42;;;;;;;8.32;6.15;;;31.00;38.40;;;;;;5017181;28;20235;-73
2022/07/20 09:03:10;;;;;;;7.90;5.97;;;31.00;38.70;;;;;;5001587;28;20204;-74
2022/07/20 09:05:39;;;;;;;8.68;5.72;;;31.00;38.70;;;;;;5004372;28;20230;-74
2022/07/20 09:08:06;;;;;;;9.70;6.05;;;31.10;39.00;;;;;;5063844;23;20195;-67
2022/07/20 09:10:34;;;;;;;9.63;5.97;;;31.10;38.60;;;;;;5000296;28;20234;-68
2022/07/20 09:13:02;;;;;;;8.07;5.97;;;31.10;38.50;;;;;;4999475;28;20206;-68
2022/07/20 09:15:35;;;;;;;7.20;6.25;;;31.10;38.60;;;;;;5016864;28;20210;-67
2022/07/20 09:18:20;;;;;;;8.02;5.90;;;31.10;38.70;;;;;;4999235;28;20251;-68
2022/07/20 09:20:50;;;;;;;9.25;5.65;;;31.10;38.60;;;;;;4999308;28;20597;-69
2022/07/20 09:23:18;;;;;;;6.38;5.80;;;31.10;38.70;;;;;;5015897;28;20250;-68
2022/07/20 09:25:58;;;;;;;7.65;5.30;;;31.10;38.80;;;;;;5015415;28;20200;-68
2022/07/20 09:28:35;;;;;;;9.15;6.00;;;31.10;38.50;;;;;;5015787;28;20223;-69
2022/07/20 09:31:03;;;;;;;6.95;5.43;;;31.10;38.90;;;;;;5015447;28;20262;-67
2022/07/20 09:33:30;;;;;;;8.00;5.53;;;31.10;38.30;;;;;;4999731;28;20212;-68
2022/07/20 09:36:05;;;;;;;8.07;6.00;;;31.10;37.90;;;;;;5015813;28;20207;-68
2022/07/20 09:38:34;;;;;;;10.15;5.70;;;31.10;38.00;;;;;;4999569;28;20215;-68
2022/07/20 09:41:02;;;;;;;7.82;5.40;;;31.10;38.70;;;;;;5015811;28;20192;-67
2022/07/20 09:43:30;;;;;;;8.73;5.72;;;31.00;38.20;;;;;;5015692;28;20204;-67
2022/07/20 09:46:13;;;;;;;9.43;5.38;;;31.00;38.80;;;;;;5016539;28;20184;-69
2022/07/20 09:48:41;;;;;;;9.40;5.68;;;30.90;38.60;;;;;;4999001;28;20582;-67
2022/07/20 09:51:21;;;;;;;8.07;5.82;;;30.90;38.30;;;;;;5016277;28;20208;-68
2022/07/20 09:53:48;;;;;;;11.77;6.35;;;31.00;37.70;;;;;;4998700;28;20196;-68
2022/07/20 09:56:16;;;;;;;10.52;5.93;;;31.00;37.80;;;;;;4997203;28;20196;-69
2022/07/20 09:58:45;;;;;;;7.18;5.97;;;31.00;37.50;;;;;;5015976;28;20223;-69
2022/07/20 10:01:13;;;;;;;7.03;6.20;;;30.90;37.40;;;;;;5014814;28;20200;-70
2022/07/20 10:03:40;;;;;;;8.05;6.55;;;30.90;37.60;;;;;;5014440;28;20200;-69
2022/07/20 10:06:07;;;;;;;12.13;6.47;;;30.90;37.20;;;;;;5016025;28;20211;-68
2022/07/20 10:08:35;;;;;;;9.27;6.35;;;30.90;37.20;;;;;;5016038;28;20224;-66
2022/07/20 10:11:02;;;;;;;10.48;6.78;;;31.00;36.00;;;;;;5014724;28;20223;-68
2022/07/20 10:13:30;;;;;;;10.65;6.35;;;30.90;36.80;;;;;;5016501;28;20192;-67
2022/07/20 10:16:00;;;;;;;10.88;6.50;;;30.90;36.80;;;;;;5015018;28;20208;-68
2022/07/20 10:18:27;;;;;;;10.18;6.65;;;30.90;36.80;;;;;;4998322;28;20215;-67
2022/07/20 10:20:54;;;;;;;9.30;6.47;;;30.80;36.90;;;;;;5014373;28;20218;-67
2022/07/20 10:23:40;;;;;;;8.15;6.25;;;30.80;37.10;;;;;;5014093;28;20192;-67
2022/07/20 10:26:06;;;;;;;6.95;6.20;;;30.80;37.10;;;;;;4997803;28;20192;-67
2022/07/20 10:28:36;;;;;;;8.43;6.30;;;30.70;37.30;;;;;;4996271;28;20578;-67
2022/07/20 10:31:06;;;;;;;8.60;6.32;;;30.70;37.40;;;;;;4997543;28;20299;-68
2022/07/20 10:33:34;;;;;;;7.18;5.82;;;30.60;37.50;;;;;;5014535;28;20750;-66
2022/07/20 10:38:55;;;;;;;7.45;6.30;;;30.50;37.80;;;;;;5005681;28;20208;-68
2022/07/20 10:41:35;;;;;;;8.25;6.10;;;30.50;38.20;;;;;;5013824;28;20200;-68
2022/07/20 10:44:28;;;;;;;8.07;6.15;;;30.40;38.30;;;;;;4997525;28;20641;-68
2022/07/20 10:46:55;;;;;;;8.95;5.60;;;30.40;38.40;;;;;;4997368;28;20208;-68
2022/07/20 10:49:37;;;;;;;6.28;5.68;;;30.30;38.40;;;;;;5013557;28;20227;-68
2022/07/20 10:52:28;;;;;;;6.57;5.57;;;30.20;38.60;;;;;;5013342;28;20575;-68
2022/07/20 10:54:57;;;;;;;6.45;5.65;;;30.10;38.70;;;;;;5013586;28;20184;-68
2022/07/20 10:57:24;;;;;;;9.32;5.75;;;30.00;38.90;;;;;;5013456;28;20227;-68
2022/07/20 11:00:10;;;;;;;8.30;6.15;;;30.00;39.00;;;;;;4996973;28;20231;-67
2022/07/20 11:02:38;;;;;;;6.68;5.78;;;30.00;39.20;;;;;;5013672;28;20196;-67
2022/07/20 11:05:06;;;;;;;7.57;6.20;;;29.90;39.40;;;;;;5013943;28;20200;-68
2022/07/20 11:07:34;;;;;;;5.90;5.30;;;29.80;39.40;;;;;;5014225;28;20271;-67
2022/07/20 11:10:20;;;;;;;7.93;6.00;;;29.80;39.40;;;;;;5014475;28;20222;-68
2022/07/20 11:12:55;;;;;;;6.47;5.85;;;29.80;39.60;;;;;;4997176;28;20188;-67
2022/07/20 11:15:21;;;;;;;7.38;6.32;;;29.80;39.60;;;;;;4996990;28;20637;-68
2022/07/20 11:17:48;;;;;;;7.63;5.78;;;29.80;39.80;;;;;;5014277;28;20193;-68
2022/07/20 11:20:17;;;;;;;7.72;6.38;;;29.70;39.80;;;;;;4996743;28;20292;-68
2022/07/20 11:22:44;;;;;;;6.25;5.65;;;29.70;39.90;;;;;;5014848;28;20238;-68
2022/07/20 11:25:13;;;;;;;7.22;5.95;;;29.70;40.00;;;;;;5013133;28;20196;-68
2022/07/20 11:27:40;;;;;;;6.60;5.53;;;29.60;40.00;;;;;;4996828;28;20294;-68
2022/07/20 11:30:08;;;;;;;7.57;5.78;;;29.60;40.20;;;;;;5014485;28;20270;-68
2022/07/20 11:32:35;;;;;;;7.78;5.65;;;29.60;40.30;;;;;;5014578;28;20208;-68
2022/07/20 11:35:05;;;;;;;8.65;6.35;;;29.60;40.40;;;;;;4997197;28;20200;-67
2022/07/20 11:37:32;;;;;;;7.03;5.78;;;29.60;40.40;;;;;;5015991;28;20196;-68
2022/07/20 11:40:00;;;;;;;7.72;5.70;;;29.60;40.40;;;;;;4999479;28;20216;-67
2022/07/20 11:42:28;;;;;;;7.53;6.13;;;29.50;40.40;;;;;;4999872;28;20196;-68
2022/07/20 11:45:00;;;;;;;8.05;5.60;;;29.60;40.50;;;;;;5019702;28;20192;-67
2022/07/20 11:47:27;;;;;;;7.90;5.97;;;29.50;40.60;;;;;;5014113;28;20196;-67
2022/07/20 11:50:05;;;;;;;8.68;5.85;;;29.50;40.60;;;;;;5014268;28;20208;-67
2022/07/20 11:52:42;;;;;;;7.97;5.18;;;29.50;40.70;;;;;;5014173;28;20203;-68
2022/07/20 11:55:09;;;;;;;5.97;5.38;;;29.50;40.80;;;;;;5014156;28;20199;-68
2022/07/20 11:57:38;;;;;;;8.15;5.70;;;29.50;41.00;;;;;;4996862;28;20203;-67
2022/07/20 12:00:06;;;;;;;6.32;5.18;;;29.40;41.20;;;;;;4997137;28;20254;-67
2022/07/20 12:02:38;;;;;;;6.72;5.13;;;29.40;41.60;;;;;;5013994;28;20181;-67
2022/07/20 12:05:06;;;;;;;5.72;5.03;;;29.40;41.60;;;;;;4996838;28;20196;-67
2022/07/20 12:10:18;;;;;;;5.85;5.10;;;29.40;41.80;;;;;;5012699;28;20192;-67
2022/07/20 12:12:47;;;;;;;5.85;5.22;;;29.40;41.90;;;;;;5014046;28;20208;-67
2022/07/20 12:15:14;;;;;;;5.70;5.10;;;29.40;42.00;;;;;;5013555;28;20192;-68
2022/07/20 12:17:49;;;;;;;6.40;4.95;;;29.30;42.00;;;;;;5012433;28;20195;-68
2022/07/20 12:20:16;;;;;;;6.40;5.32;;;29.30;42.00;;;;;;4995303;28;20192;-66
2022/07/20 12:22:50;;;;;;;5.80;4.82;;;29.30;42.00;;;;;;5013947;28;20220;-67
2022/07/20 12:25:17;;;;;;;5.68;4.93;;;29.30;42.20;;;;;;5013705;28;20192;-68
2022/07/20 12:27:44;;;;;;;6.30;5.00;;;29.30;42.20;;;;;;5012180;28;20654;-67
2022/07/20 12:30:27;;;;;;;5.28;4.60;;;29.30;42.80;;;;;;4995827;28;20242;-67
2022/07/20 12:33:08;;;;;;;5.82;5.00;;;29.20;42.30;;;;;;5012120;28;20273;-68
2022/07/20 12:35:35;;;;;;;6.07;4.95;;;29.20;42.30;;;;;;5013503;28;20259;-67
2022/07/20 12:38:02;;;;;;;6.65;4.47;;;29.20;42.40;;;;;;5012090;28;20210;-68
2022/07/20 12:40:37;;;;;;;6.25;5.05;;;29.20;42.50;;;;;;5013626;28;20195;-67
2022/07/20 12:43:04;;;;;;;5.72;4.82;;;29.10;42.50;;;;;;5013987;28;20176;-67
2022/07/20 12:45:33;;;;;;;6.78;4.78;;;29.10;42.50;;;;;;5012903;28;20654;-66
2022/07/20 12:48:00;;;;;;;6.93;4.57;;;29.10;42.60;;;;;;4996157;28;20196;-67
2022/07/20 12:50:27;;;;;;;5.35;4.82;;;29.10;42.70;;;;;;4995662;28;20200;-68
2022/07/20 12:52:54;;;;;;;5.50;4.97;;;29.00;42.80;;;;;;4995872;28;20227;-68
2022/07/20 12:55:21;;;;;;;5.68;4.90;;;29.00;43.00;;;;;;5011946;28;20579;-68
2022/07/20 12:57:48;;;;;;;5.53;5.03;;;28.90;43.00;;;;;;5013145;28;20275;-68
2022/07/20 13:00:16;;;;;;;8.10;4.72;;;28.90;43.00;;;;;;5013735;28;20664;-68
2022/07/20 13:02:44;;;;;;;6.72;4.78;;;28.90;43.00;;;;;;4995681;28;20227;-67